createdAt,value
2019-05-01T00:01:36.895Z,36.20
2019-05-01T00:07:40.872Z,36.20
2019-05-01T00:10:22.802Z,43.50
2019-05-01T00:13:08.447Z,41.10
2019-05-01T00:15:59.325Z,38.77
2019-05-01T00:18:39.323Z,42.70
2019-05-01T00:21:20.222Z,42.37
2019-05-01T00:24:00.272Z,34.97
2019-05-01T00:26:39.801Z,38.30
2019-05-01T00:29:20.851Z,40.53
2019-05-01T00:32:02.807Z,37.83
2019-05-01T00:34:43.097Z,40.10
2019-05-01T00:37:24.102Z,41.20
2019-05-01T00:40:05.222Z,39.80
2019-05-01T00:42:46.433Z,36.93
2019-05-01T00:45:27.603Z,38.43
2019-05-01T00:48:07.762Z,40.97
2019-05-01T00:50:47.676Z,42.33
2019-05-01T00:53:31.889Z,40.13
2019-05-01T00:56:37.420Z,39.70
2019-05-01T01:02:28.802Z,44.73
2019-05-01T01:05:09.373Z,39.27
2019-05-01T01:07:50.550Z,39.33
2019-05-01T01:10:30.934Z,39.87
2019-05-01T01:13:11.948Z,38.77
2019-05-01T01:15:52.265Z,41.27
2019-05-01T01:18:33.422Z,43.50
2019-05-01T01:21:00.329Z,41.53
2019-05-01T01:23:40.354Z,40.30
2019-05-01T01:26:20.700Z,41.90
2019-05-01T01:29:00.651Z,39.30
2019-05-01T01:31:40.878Z,42.47
2019-05-01T01:34:21.145Z,39.70
2019-05-01T01:37:02.223Z,42.13
2019-05-01T01:39:43.049Z,40.60
2019-05-01T01:48:32.770Z,40.23
2019-05-01T01:51:14.819Z,43.10
2019-05-01T01:53:54.962Z,45.60
2019-05-01T01:56:34.949Z,44.73
2019-05-01T01:59:14.833Z,45.83
2019-05-01T02:05:08.419Z,44.73
2019-05-01T02:07:56.899Z,44.63
2019-05-01T02:10:44.795Z,45.67
2019-05-01T02:13:28.022Z,40.50
2019-05-01T02:16:17.350Z,45.60
2019-05-01T02:18:59.600Z,46.37
2019-05-01T02:21:41.130Z,48.80
2019-05-01T02:24:21.670Z,46.17
2019-05-01T02:27:06.353Z,48.00
2019-05-01T02:29:49.919Z,42.90
2019-05-01T02:32:29.727Z,52.77
2019-05-01T02:35:09.638Z,47.07
2019-05-01T02:37:49.458Z,45.93
2019-05-01T02:40:29.274Z,49.37
2019-05-01T02:49:50.855Z,44.57
2019-05-01T02:52:31.263Z,44.33
2019-05-01T02:58:28.558Z,45.60
2019-05-01T03:01:08.852Z,46.53
2019-05-01T03:03:49.931Z,59.40
2019-05-01T03:06:31.182Z,49.30
2019-05-01T03:09:12.161Z,56.87
2019-05-01T03:11:53.118Z,51.30
2019-05-01T03:14:34.329Z,52.23
2019-05-01T03:17:34.790Z,49.77
2019-05-01T03:20:35.207Z,54.10
2019-05-01T03:26:26.003Z,51.83
2019-05-01T03:29:06.317Z,57.90
2019-05-01T03:32:12.982Z,54.33
2019-05-01T03:34:15.183Z,52.57
2019-05-01T03:37:01.938Z,59.37
2019-05-01T03:39:43.889Z,57.07
2019-05-01T03:42:12.028Z,53.43
2019-05-01T03:45:12.070Z,56.77
2019-05-01T03:47:40.427Z,58.00
2019-05-01T03:50:22.331Z,52.90
2019-05-01T03:53:03.530Z,55.27
2019-05-01T03:55:47.582Z,55.67
2019-05-01T03:58:33.098Z,62.90
2019-05-01T04:01:32.708Z,55.23
2019-05-01T04:04:43.398Z,60.33
2019-05-01T04:07:36.070Z,64.10
2019-05-01T04:10:34.243Z,68.27
2019-05-01T04:13:15.639Z,62.27
2019-05-01T04:15:56.591Z,68.47
2019-05-01T04:18:37.432Z,67.57
2019-05-01T04:21:19.715Z,69.00
2019-05-01T04:23:59.671Z,77.30
2019-05-01T04:26:39.679Z,72.20
2019-05-01T04:29:37.042Z,64.13
2019-05-01T04:32:26.550Z,59.23
2019-05-01T04:38:25.968Z,61.50
2019-05-01T04:41:07.078Z,64.77
2019-05-01T04:43:47.992Z,63.93
2019-05-01T04:46:28.900Z,74.47
2019-05-01T04:48:56.033Z,73.43
2019-05-01T04:51:36.014Z,81.70
2019-05-01T04:54:16.417Z,70.73
2019-05-01T04:56:56.581Z,77.03
2019-05-01T04:59:36.603Z,78.67
2019-05-01T05:05:40.566Z,80.97
2019-05-01T05:08:28.967Z,78.27
2019-05-01T05:11:16.405Z,74.30
2019-05-01T05:14:16.046Z,75.73
2019-05-01T05:16:59.464Z,75.40
2019-05-01T05:19:39.798Z,77.23
2019-05-01T05:22:19.923Z,74.20
2019-05-01T05:25:00.088Z,77.90
2019-05-01T05:27:41.406Z,79.03
2019-05-01T05:30:22.489Z,80.80
2019-05-01T05:33:18.232Z,80.43
2019-05-01T05:35:51.883Z,70.47
2019-05-01T05:38:39.513Z,73.40
2019-05-01T05:41:21.969Z,82.87
2019-05-01T05:44:03.022Z,78.70
2019-05-01T05:46:43.302Z,77.87
2019-05-01T05:49:23.501Z,88.53
2019-05-01T05:52:31.881Z,84.47
2019-05-01T06:04:59.537Z,98.47
2019-05-01T06:11:20.460Z,88.20
2019-05-01T06:14:31.336Z,89.27
2019-05-01T06:20:57.104Z,93.00
2019-05-01T06:24:06.905Z,85.40
2019-05-01T06:26:48.373Z,93.83
2019-05-01T06:29:31.062Z,96.40
2019-05-01T06:31:58.717Z,98.43
2019-05-01T06:34:52.386Z,97.57
2019-05-01T06:37:20.949Z,115.83
2019-05-01T06:40:10.903Z,90.90
2019-05-01T06:42:51.474Z,89.60
2019-05-01T06:45:32.959Z,88.97
2019-05-01T06:48:14.332Z,83.13
2019-05-01T06:51:18.905Z,100.67
2019-05-01T06:54:20.213Z,86.83
2019-05-01T06:57:01.506Z,86.70
2019-05-01T06:59:44.054Z,94.70
2019-05-01T07:05:54.430Z,90.17
2019-05-01T07:08:44.008Z,85.33
2019-05-01T07:11:25.106Z,89.90
2019-05-01T07:14:06.090Z,88.03
2019-05-01T07:16:47.244Z,78.07
2019-05-01T07:19:47.759Z,92.30
2019-05-01T07:22:28.630Z,94.43
2019-05-01T07:25:09.533Z,94.17
2019-05-01T07:27:37.584Z,83.67
2019-05-01T07:30:50.001Z,85.73
2019-05-01T07:33:34.550Z,82.40
2019-05-01T07:36:22.509Z,78.37
2019-05-01T07:39:05.144Z,73.07
2019-05-01T07:41:46.598Z,74.87
2019-05-01T07:44:34.994Z,95.67
2019-05-01T07:47:41.193Z,78.10
2019-05-01T07:50:31.357Z,80.57
2019-05-01T07:53:07.065Z,86.10
2019-05-01T07:55:48.602Z,73.47
2019-05-01T07:58:28.260Z,73.33
2019-05-01T08:04:35.966Z,73.77
2019-05-01T08:07:09.034Z,68.70
2019-05-01T08:09:50.310Z,72.20
2019-05-01T08:12:32.835Z,72.13
2019-05-01T08:15:18.406Z,79.40
2019-05-01T08:24:22.872Z,64.37
2019-05-01T08:27:02.827Z,62.40
2019-05-01T08:30:03.543Z,62.33
2019-05-01T08:32:50.201Z,54.53
2019-05-01T08:35:31.674Z,53.83
2019-05-01T08:38:01.271Z,48.17
2019-05-01T08:40:50.694Z,46.80
2019-05-01T08:43:54.219Z,48.13
2019-05-01T08:49:55.849Z,53.90
2019-05-01T08:52:35.286Z,52.57
2019-05-01T08:55:15.341Z,55.23
2019-05-01T08:57:55.310Z,52.63
2019-05-01T09:00:38.972Z,49.57
2019-05-01T09:03:18.755Z,51.83
2019-05-01T09:06:00.803Z,49.57
2019-05-01T09:08:41.774Z,53.43
2019-05-01T09:11:09.764Z,47.47
2019-05-01T09:13:59.042Z,48.53
2019-05-01T09:17:00.322Z,54.77
2019-05-01T09:19:44.239Z,50.43
2019-05-01T09:22:24.637Z,58.70
2019-05-01T09:25:05.269Z,50.97
2019-05-01T09:28:10.473Z,50.83
2019-05-01T09:31:01.321Z,48.40
2019-05-01T09:33:38.112Z,54.60
2019-05-01T09:36:23.490Z,56.67
2019-05-01T09:39:05.293Z,50.80
2019-05-01T09:41:47.417Z,52.43
2019-05-01T09:44:29.450Z,54.57
2019-05-01T09:47:10.942Z,50.80
2019-05-01T09:49:53.947Z,48.73
2019-05-01T09:56:03.229Z,55.37
2019-05-01T09:58:43.051Z,57.27
2019-05-01T10:01:24.122Z,55.27
2019-05-01T10:04:05.661Z,66.93
2019-05-01T10:06:54.220Z,64.73
2019-05-01T10:09:47.367Z,73.53
2019-05-01T10:12:47.037Z,70.47
2019-05-01T10:15:27.637Z,64.67
2019-05-01T10:18:07.544Z,74.53
2019-05-01T10:20:47.952Z,62.37
2019-05-01T10:23:27.793Z,66.90
2019-05-01T10:29:29.482Z,82.07
2019-05-01T10:32:36.317Z,81.80
2019-05-01T10:35:44.012Z,80.53
2019-05-01T10:38:12.933Z,72.67
2019-05-01T10:41:15.422Z,72.30
2019-05-01T10:47:27.426Z,65.97
2019-05-01T10:50:08.361Z,74.43
2019-05-01T10:52:49.708Z,67.63
2019-05-01T10:55:37.710Z,63.63
2019-05-01T10:58:26.440Z,67.40
2019-05-01T11:01:25.740Z,70.67
2019-05-01T11:04:06.071Z,67.63
2019-05-01T11:06:45.982Z,74.67
2019-05-01T11:09:16.488Z,69.10
2019-05-01T11:12:03.153Z,65.50
2019-05-01T11:14:33.932Z,80.13
2019-05-01T11:17:03.249Z,73.47
2019-05-01T11:19:44.297Z,79.07
2019-05-01T11:22:13.361Z,84.17
2019-05-01T11:24:42.502Z,74.10
2019-05-01T11:27:31.297Z,77.50
2019-05-01T11:30:13.164Z,93.20
2019-05-01T11:33:00.351Z,75.10
2019-05-01T11:35:49.189Z,74.50
2019-05-01T11:44:34.654Z,72.63
2019-05-01T11:50:27.145Z,71.30
2019-05-01T11:53:08.657Z,68.43
2019-05-01T11:55:49.902Z,70.23
2019-05-01T11:58:30.840Z,66.73
2019-05-01T12:04:16.634Z,74.90
2019-05-01T12:06:56.822Z,71.10
2019-05-01T12:09:41.151Z,72.33
2019-05-01T12:12:22.857Z,71.70
2019-05-01T12:15:07.835Z,71.10
2019-05-01T12:17:49.202Z,73.60
2019-05-01T12:20:28.875Z,74.30
2019-05-01T12:22:56.417Z,79.03
2019-05-01T12:25:37.070Z,74.23
2019-05-01T12:28:06.385Z,80.37
2019-05-01T12:30:55.086Z,79.93
2019-05-01T12:33:24.245Z,72.90
2019-05-01T12:36:12.994Z,78.47
2019-05-01T12:38:54.629Z,77.63
2019-05-01T12:44:36.056Z,81.20
2019-05-01T12:47:38.026Z,83.23
2019-05-01T12:50:17.201Z,80.30
2019-05-01T12:53:16.848Z,71.23
2019-05-01T12:56:17.179Z,80.63
2019-05-01T12:58:58.702Z,71.43
2019-05-01T13:01:39.770Z,71.73
2019-05-01T13:04:20.763Z,73.43
2019-05-01T13:07:01.998Z,81.27
2019-05-01T13:09:30.247Z,75.77
2019-05-01T13:12:18.775Z,77.87
2019-05-01T13:14:58.662Z,75.50
2019-05-01T13:17:39.738Z,80.83
2019-05-01T13:20:21.825Z,81.00
2019-05-01T13:23:01.367Z,74.67
2019-05-01T13:25:42.080Z,80.47
2019-05-01T13:28:42.434Z,91.50
2019-05-01T13:31:43.541Z,77.40
2019-05-01T13:34:28.380Z,78.37
2019-05-01T13:37:10.130Z,78.77
2019-05-01T13:39:51.250Z,86.30
2019-05-01T13:42:32.398Z,74.13
2019-05-01T13:45:13.479Z,82.40
2019-05-01T13:47:54.527Z,71.53
2019-05-01T13:50:34.805Z,72.53
2019-05-01T13:53:01.730Z,83.40
2019-05-01T13:55:48.318Z,74.70
2019-05-01T13:58:57.902Z,73.70
2019-05-01T14:01:27.529Z,71.50
2019-05-01T14:04:09.690Z,73.43
2019-05-01T14:06:50.213Z,72.23
2019-05-01T14:09:32.883Z,71.33
2019-05-01T14:12:13.934Z,72.03
2019-05-01T14:14:41.903Z,65.60
2019-05-01T14:17:29.457Z,64.53
2019-05-01T14:20:16.233Z,60.93
2019-05-01T14:26:10.382Z,65.67
2019-05-01T14:28:50.634Z,61.33
2019-05-01T14:31:38.542Z,61.97
2019-05-01T14:34:27.165Z,60.80
2019-05-01T14:37:08.647Z,61.50
2019-05-01T14:39:36.673Z,56.30
2019-05-01T14:42:25.617Z,60.57
2019-05-01T14:45:07.902Z,57.23
2019-05-01T14:47:48.830Z,60.53
2019-05-01T14:50:16.280Z,61.23
2019-05-01T14:53:03.354Z,60.40
2019-05-01T14:55:43.816Z,63.00
2019-05-01T14:58:25.046Z,62.10
2019-05-01T15:01:04.702Z,59.50
2019-05-01T15:03:31.981Z,62.83
2019-05-01T15:06:12.519Z,62.93
2019-05-01T15:08:40.861Z,62.70
2019-05-01T15:11:29.459Z,73.20
2019-05-01T15:17:24.066Z,67.27
2019-05-01T15:20:04.999Z,62.53
2019-05-01T15:22:45.902Z,63.03
2019-05-01T15:25:26.903Z,72.93
2019-05-01T15:28:07.677Z,63.10
2019-05-01T15:30:54.390Z,63.73
2019-05-01T15:33:41.762Z,54.80
2019-05-01T15:36:21.954Z,57.67
2019-05-01T15:39:03.553Z,57.50
2019-05-01T15:42:07.389Z,63.30
2019-05-01T15:44:48.098Z,63.73
2019-05-01T15:47:29.167Z,68.63
2019-05-01T15:49:58.857Z,63.10
2019-05-01T15:52:46.810Z,74.03
2019-05-01T15:55:28.518Z,73.30
2019-05-01T15:58:11.853Z,72.40
2019-05-01T16:00:40.213Z,73.23
2019-05-01T16:03:30.107Z,72.27
2019-05-01T16:06:09.994Z,79.60
2019-05-01T16:08:50.093Z,81.37
2019-05-01T16:11:49.634Z,80.10
2019-05-01T16:14:29.352Z,71.50
2019-05-01T16:17:09.358Z,70.27
2019-05-01T16:19:50.266Z,70.43
2019-05-01T16:22:31.540Z,68.97
2019-05-01T16:25:15.693Z,74.77
2019-05-01T16:27:56.263Z,68.80
2019-05-01T16:30:37.518Z,67.90
2019-05-01T16:33:05.987Z,69.93
2019-05-01T16:35:35.867Z,73.43
2019-05-01T16:38:24.515Z,65.70
2019-05-01T16:41:07.158Z,71.10
2019-05-01T16:43:47.159Z,60.80
2019-05-01T16:46:26.938Z,60.40
2019-05-01T16:49:07.094Z,63.07
2019-05-01T16:51:47.359Z,58.17
2019-05-01T16:54:27.438Z,57.23
2019-05-01T16:57:10.838Z,50.90
2019-05-01T16:59:51.978Z,53.80
2019-05-01T17:02:42.875Z,51.37
2019-05-01T17:05:51.222Z,51.00
2019-05-01T17:08:48.251Z,48.20
2019-05-01T17:11:31.809Z,55.00
2019-05-01T17:14:13.869Z,49.80
2019-05-01T17:16:54.070Z,49.40
2019-05-01T17:19:34.334Z,53.23
2019-05-01T17:22:16.057Z,51.00
2019-05-01T17:24:56.778Z,54.53
2019-05-01T17:27:36.806Z,52.43
2019-05-01T17:30:19.963Z,54.60
2019-05-01T17:33:00.955Z,46.70
2019-05-01T17:35:43.168Z,54.40
2019-05-01T17:38:24.061Z,48.87
2019-05-01T17:41:04.847Z,47.83
2019-05-01T17:43:33.818Z,44.57
2019-05-01T17:46:05.886Z,49.27
2019-05-01T17:49:09.166Z,46.27
2019-05-01T17:51:47.545Z,46.23
2019-05-01T17:54:27.545Z,47.20
2019-05-01T17:57:07.551Z,46.30
2019-05-01T17:59:50.182Z,47.37
2019-05-01T18:05:56.189Z,46.07
2019-05-01T18:08:35.339Z,46.30
2019-05-01T18:11:16.226Z,45.90
2019-05-01T18:13:57.370Z,45.80
2019-05-01T18:16:40.886Z,49.73
2019-05-01T18:19:22.440Z,51.70
2019-05-01T18:22:09.050Z,47.83
2019-05-01T18:28:29.964Z,44.43
2019-05-01T18:31:18.985Z,48.10
2019-05-01T18:34:02.615Z,50.03
2019-05-01T18:36:49.898Z,50.00
2019-05-01T18:39:36.234Z,55.10
2019-05-01T18:42:06.527Z,47.63
2019-05-01T18:44:55.077Z,49.00
2019-05-01T18:47:24.592Z,49.30
2019-05-01T18:50:13.662Z,50.23
2019-05-01T18:53:13.914Z,51.00
2019-05-01T18:55:42.554Z,53.20
2019-05-01T18:58:31.108Z,49.97
2019-05-01T19:01:11.311Z,54.37
2019-05-01T19:06:54.461Z,52.17
2019-05-01T19:09:29.727Z,51.83
2019-05-01T19:12:12.454Z,53.50
2019-05-01T19:14:54.775Z,54.23
2019-05-01T19:17:35.723Z,52.90
2019-05-01T19:20:16.665Z,50.40
2019-05-01T19:22:57.940Z,53.40
2019-05-01T19:25:38.021Z,56.80
2019-05-01T19:31:05.594Z,61.70
2019-05-01T19:33:45.238Z,55.60
2019-05-01T19:36:12.464Z,56.60
2019-05-01T19:38:39.591Z,63.73
2019-05-01T19:41:19.806Z,62.67
2019-05-01T19:44:01.143Z,55.33
2019-05-01T19:46:42.100Z,51.93
2019-05-01T19:49:10.280Z,63.07
2019-05-01T19:51:38.241Z,56.93
2019-05-01T19:54:19.081Z,57.17
2019-05-01T19:56:47.128Z,57.03
2019-05-01T19:59:35.914Z,62.63
2019-05-01T20:02:22.088Z,58.77
2019-05-01T20:05:00.713Z,61.50
2019-05-01T20:07:40.877Z,57.80
2019-05-01T20:13:11.830Z,62.37
2019-05-01T20:16:16.093Z,59.40
2019-05-01T20:18:44.452Z,65.30
2019-05-01T20:21:32.041Z,63.20
2019-05-01T20:24:14.449Z,66.20
2019-05-01T20:26:55.302Z,61.90
2019-05-01T20:29:36.792Z,71.40
2019-05-01T20:32:21.188Z,69.53
2019-05-01T20:35:00.033Z,70.63
2019-05-01T20:37:40.369Z,67.87
2019-05-01T20:40:11.335Z,70.37
2019-05-01T20:43:05.891Z,70.27
2019-05-01T20:45:51.971Z,70.70
2019-05-01T20:48:33.046Z,66.67
2019-05-01T20:51:14.094Z,70.00
2019-05-01T20:53:55.382Z,64.13
2019-05-01T20:59:35.226Z,70.70
2019-05-01T21:02:07.721Z,73.40
2019-05-01T21:05:32.241Z,72.73
2019-05-01T21:08:39.094Z,68.03
2019-05-01T21:11:42.286Z,78.70
2019-05-01T21:14:23.240Z,73.40
2019-05-01T21:17:04.419Z,75.97
2019-05-01T21:19:45.345Z,78.00
2019-05-01T21:22:26.199Z,77.60
2019-05-01T21:25:06.368Z,76.50
2019-05-01T21:27:46.717Z,73.90
2019-05-01T21:30:26.925Z,82.47
2019-05-01T21:33:11.933Z,78.10
2019-05-01T21:35:40.032Z,71.07
2019-05-01T21:38:27.761Z,78.87
2019-05-01T21:41:09.908Z,78.23
2019-05-01T21:43:52.958Z,79.43
2019-05-01T21:46:34.175Z,77.70
2019-05-01T21:49:15.413Z,72.37
2019-05-01T21:51:56.753Z,75.13
2019-05-01T21:54:37.745Z,75.70
2019-05-01T21:57:19.212Z,73.27
2019-05-01T21:59:58.898Z,79.20
2019-05-01T22:02:41.587Z,76.40
2019-05-01T22:05:19.930Z,77.43
2019-05-01T22:08:03.813Z,68.23
2019-05-01T22:10:51.690Z,79.83
2019-05-01T22:13:25.538Z,75.47
2019-05-01T22:19:27.778Z,66.87
2019-05-01T22:22:16.701Z,73.97
2019-05-01T22:25:09.890Z,68.47
2019-05-01T22:27:56.550Z,71.83
2019-05-01T22:31:02.830Z,68.63
2019-05-01T22:33:44.465Z,73.47
2019-05-01T22:36:24.950Z,68.83
2019-05-01T22:39:07.198Z,71.53
2019-05-01T22:41:47.921Z,67.37
2019-05-01T22:44:29.109Z,67.30
2019-05-01T22:50:40.006Z,62.43
2019-05-01T22:53:26.586Z,63.73
2019-05-01T22:56:06.715Z,68.13
2019-05-01T22:58:46.550Z,65.10
2019-05-01T23:01:18.203Z,65.47
2019-05-01T23:04:12.197Z,62.07
2019-05-01T23:07:00.746Z,58.27
2019-05-01T23:09:46.005Z,70.47
2019-05-01T23:12:27.090Z,61.07
2019-05-01T23:15:12.094Z,64.87
2019-05-01T23:17:53.046Z,58.47
2019-05-01T23:20:34.750Z,61.50
2019-05-01T23:23:17.313Z,55.27
2019-05-01T23:25:57.283Z,57.93
2019-05-01T23:28:39.860Z,58.03
2019-05-01T23:31:19.675Z,62.17
2019-05-01T23:33:59.107Z,58.83
2019-05-01T23:36:38.922Z,63.90
2019-05-01T23:39:19.961Z,60.40
2019-05-01T23:42:00.327Z,59.83
2019-05-01T23:44:42.939Z,65.83
2019-05-01T23:47:24.551Z,60.60
2019-05-01T23:50:05.459Z,63.30
2019-05-01T23:52:46.546Z,59.90
2019-05-01T23:55:27.685Z,57.17
2019-05-01T23:58:11.225Z,60.10
